Time;durP1;ratioP1;P1;durP2;ratioP2;P2;SDS_P1;SDS_P2;PMS_P1;PMS_P2;Temp;Humidity;BMP_temperature;BMP_pressure;BME280_temperature;BME280_humidity;BME280_pressure;Samples;Min_cycle;Max_cycle;Signal;HPM_P1;HPM_P2
2021/12/12 00:00:47;;;;;;;17.63;3.25;;;;;;;;;;5074469;28;20267;-75
2021/12/12 00:03:20;;;;;;;8.77;3.13;;;;;;;;;;5078713;28;20205;-75
2021/12/12 00:05:55;;;;;;;11.82;3.58;;;;;;;;;;5076644;28;20167;-75
2021/12/12 00:08:22;;;;;;;5.50;2.85;;;;;;;;;;5092814;28;20185;-75
2021/12/12 00:10:53;;;;;;;7.88;3.03;;;;;;;;;;5073102;28;20178;-75
2021/12/12 00:13:23;;;;;;;6.72;2.60;;;;;;;;;;5085065;28;20268;-75
2021/12/12 00:15:49;;;;;;;9.63;2.78;;;;;;;;;;5073457;28;20179;-74
2021/12/12 00:18:15;;;;;;;27.42;5.60;;;;;;;;;;5071925;28;20532;-75
2021/12/12 00:20:42;;;;;;;16.13;4.03;;;;;;;;;;5073227;28;20511;-75
2021/12/12 00:23:08;;;;;;;12.52;3.20;;;;;;;;;;5072489;28;20704;-75
2021/12/12 00:25:38;;;;;;;12.90;3.70;;;;;;;;;;5072196;28;20171;-75
2021/12/12 00:28:04;;;;;;;6.53;2.53;;;;;;;;;;5080059;28;20232;-75
2021/12/12 00:30:30;;;;;;;13.45;2.35;;;;;;;;;;5083888;28;20186;-74
2021/12/12 00:32:56;;;;;;;16.98;3.95;;;;;;;;;;5079031;28;20239;-74
2021/12/12 00:35:23;;;;;;;12.95;4.18;;;;;;;;;;5076324;28;20193;-74
2021/12/12 00:37:55;;;;;;;8.90;2.97;;;;;;;;;;5076434;28;20186;-74
2021/12/12 00:40:23;;;;;;;5.78;2.15;;;;;;;;;;5083902;28;20261;-74
2021/12/12 00:42:51;;;;;;;10.68;3.17;;;;;;;;;;5077584;28;20208;-74
2021/12/12 00:45:17;;;;;;;14.13;3.58;;;;;;;;;;5081987;28;20178;-74
2021/12/12 00:47:44;;;;;;;28.50;4.60;;;;;;;;;;5079935;28;20170;-73
2021/12/12 00:50:17;;;;;;;7.53;2.35;;;;;;;;;;5077669;28;20630;-73
2021/12/12 00:52:44;;;;;;;6.45;2.40;;;;;;;;;;5076387;28;20171;-74
2021/12/12 00:55:10;;;;;;;10.88;2.90;;;;;;;;;;5081085;28;20245;-74
2021/12/12 00:57:36;;;;;;;12.57;3.47;;;;;;;;;;5083479;28;20181;-74
2021/12/12 01:00:04;;;;;;;7.47;2.80;;;;;;;;;;5076258;28;20179;-74
2021/12/12 01:02:30;;;;;;;23.05;4.57;;;;;;;;;;5089686;28;20174;-74
2021/12/12 01:04:57;;;;;;;8.20;3.20;;;;;;;;;;5076235;28;20255;-74
2021/12/12 01:07:26;;;;;;;9.85;3.13;;;;;;;;;;5078680;28;20505;-74
2021/12/12 01:09:54;;;;;;;13.73;3.38;;;;;;;;;;5077985;28;20203;-74
2021/12/12 01:12:23;;;;;;;12.65;3.78;;;;;;;;;;5083896;28;20181;-74
2021/12/12 01:14:54;;;;;;;11.52;3.70;;;;;;;;;;5075659;28;20597;-74
2021/12/12 01:17:27;;;;;;;14.27;3.65;;;;;;;;;;5076004;28;20186;-73
2021/12/12 01:19:59;;;;;;;7.03;2.78;;;;;;;;;;5075503;28;20179;-73
2021/12/12 01:22:32;;;;;;;24.33;3.63;;;;;;;;;;5076861;28;20206;-74
2021/12/12 01:24:59;;;;;;;8.32;3.00;;;;;;;;;;5079482;28;20665;-74
2021/12/12 01:27:26;;;;;;;7.32;3.00;;;;;;;;;;5074325;28;20187;-74
2021/12/12 01:29:52;;;;;;;12.38;3.67;;;;;;;;;;5083041;28;20225;-74
2021/12/12 01:32:30;;;;;;;9.88;3.08;;;;;;;;;;5075880;28;20195;-73
2021/12/12 01:34:57;;;;;;;8.02;2.97;;;;;;;;;;5078944;28;20181;-73
2021/12/12 01:39:54;;;;;;;8.70;3.30;;;;;;;;;;5082279;28;20174;-74
2021/12/12 01:42:24;;;;;;;8.27;3.53;;;;;;;;;;5079662;28;20535;-74
2021/12/12 01:44:53;;;;;;;19.85;4.75;;;;;;;;;;5081310;28;20195;-74
2021/12/12 01:47:25;;;;;;;7.53;3.30;;;;;;;;;;5075831;28;20266;-75
2021/12/12 01:49:53;;;;;;;24.40;4.20;;;;;;;;;;5080789;28;20166;-74
2021/12/12 01:52:21;;;;;;;15.50;3.90;;;;;;;;;;5075313;28;20171;-74
2021/12/12 01:54:48;;;;;;;13.43;3.60;;;;;;;;;;5079052;28;20175;-74
2021/12/12 01:57:26;;;;;;;11.35;3.55;;;;;;;;;;5085861;28;20171;-74
2021/12/12 01:59:52;;;;;;;19.10;4.53;;;;;;;;;;5078271;28;20664;-74
2021/12/12 02:02:23;;;;;;;25.70;6.00;;;;;;;;;;5075455;28;20194;-74
2021/12/12 02:04:50;;;;;;;12.27;2.88;;;;;;;;;;5074852;28;20622;-74
2021/12/12 02:07:18;;;;;;;16.65;4.53;;;;;;;;;;5081171;28;20634;-74
2021/12/12 02:09:45;;;;;;;35.50;4.90;;;;;;;;;;5076415;28;20179;-74
2021/12/12 02:12:11;;;;;;;5.88;3.00;;;;;;;;;;5080243;28;20171;-74
2021/12/12 02:14:40;;;;;;;12.30;4.22;;;;;;;;;;5074765;28;20186;-74
2021/12/12 02:17:20;;;;;;;8.88;3.85;;;;;;;;;;5074950;28;20179;-73
2021/12/12 02:20:07;;;;;;;14.68;4.07;;;;;;;;;;5077679;28;20223;-74
2021/12/12 02:36:12;;;;;;;9.38;3.45;;;;;;;;;;5074544;28;20182;-74
2021/12/12 02:38:38;;;;;;;17.05;4.53;;;;;;;;;;5074255;28;20572;-74
2021/12/12 02:41:15;;;;;;;13.23;4.38;;;;;;;;;;5074423;28;20236;-74
2021/12/12 02:43:44;;;;;;;16.30;4.97;;;;;;;;;;5074723;28;20281;-74
2021/12/12 02:46:13;;;;;;;28.75;6.32;;;;;;;;;;5082396;28;20572;-74
2021/12/12 02:48:41;;;;;;;28.70;5.10;;;;;;;;;;5074364;28;20178;-74
2021/12/12 02:51:09;;;;;;;24.83;5.07;;;;;;;;;;5074094;28;20232;-75
2021/12/12 02:53:38;;;;;;;16.27;4.13;;;;;;;;;;5073271;28;20178;-75
2021/12/12 02:56:09;;;;;;;6.43;3.13;;;;;;;;;;5090292;28;20178;-75
2021/12/12 02:58:35;;;;;;;22.17;5.50;;;;;;;;;;5073864;28;20182;-74
2021/12/12 03:01:16;;;;;;;8.35;3.38;;;;;;;;;;5073660;28;20257;-74
2021/12/12 03:03:42;;;;;;;21.60;5.38;;;;;;;;;;5074752;28;20598;-74
2021/12/12 03:06:10;;;;;;;6.18;3.20;;;;;;;;;;5078001;28;20173;-74
2021/12/12 03:08:38;;;;;;;22.73;5.28;;;;;;;;;;5092235;28;20232;-74
2021/12/12 03:11:05;;;;;;;17.80;4.20;;;;;;;;;;5074606;28;20179;-74
2021/12/12 03:13:31;;;;;;;16.05;4.57;;;;;;;;;;5078896;28;20178;-74
2021/12/12 03:15:57;;;;;;;25.15;5.90;;;;;;;;;;5072749;28;20666;-74
2021/12/12 03:18:26;;;;;;;8.50;3.65;;;;;;;;;;5073848;28;20691;-73
2021/12/12 03:20:54;;;;;;;8.50;3.55;;;;;;;;;;5073535;28;20261;-74
2021/12/12 03:23:28;;;;;;;7.05;3.28;;;;;;;;;;5073379;28;20229;-74
2021/12/12 03:25:57;;;;;;;12.70;4.55;;;;;;;;;;5084803;28;20175;-74
2021/12/12 03:28:24;;;;;;;13.35;3.63;;;;;;;;;;5082596;28;20201;-74
2021/12/12 03:30:52;;;;;;;12.68;4.90;;;;;;;;;;5073818;28;20563;-74
2021/12/12 03:33:18;;;;;;;7.35;3.47;;;;;;;;;;5078261;28;20268;-74
2021/12/12 03:35:52;;;;;;;12.32;4.65;;;;;;;;;;5080786;28;20179;-74
2021/12/12 03:38:19;;;;;;;12.20;4.80;;;;;;;;;;5073032;28;20181;-74
2021/12/12 03:40:45;;;;;;;24.13;4.93;;;;;;;;;;5073290;28;20664;-74
2021/12/12 03:43:12;;;;;;;15.02;5.57;;;;;;;;;;5080715;28;20182;-75
2021/12/12 03:45:38;;;;;;;11.73;4.65;;;;;;;;;;5078603;28;20236;-74
2021/12/12 03:48:12;;;;;;;14.65;5.63;;;;;;;;;;5073238;28;20221;-74
2021/12/12 03:50:39;;;;;;;21.75;5.55;;;;;;;;;;5073101;28;20214;-74
2021/12/12 03:53:05;;;;;;;30.65;7.47;;;;;;;;;;5072912;28;20167;-74
2021/12/12 03:55:31;;;;;;;8.18;4.47;;;;;;;;;;5080941;28;20261;-74
2021/12/12 03:58:01;;;;;;;17.88;5.50;;;;;;;;;;5077189;28;20689;-74
2021/12/12 04:00:29;;;;;;;13.20;4.82;;;;;;;;;;5072982;28;20197;-74
2021/12/12 04:02:55;;;;;;;16.05;5.38;;;;;;;;;;5079114;28;20179;-73
2021/12/12 04:05:21;;;;;;;13.00;4.97;;;;;;;;;;5072274;28;20266;-73
2021/12/12 04:07:49;;;;;;;24.80;7.40;;;;;;;;;;5076099;28;20183;-73
2021/12/12 04:10:19;;;;;;;17.73;6.05;;;;;;;;;;5074711;28;20167;-73
2021/12/12 04:12:46;;;;;;;31.08;7.80;;;;;;;;;;5073891;28;20467;-74
2021/12/12 04:15:12;;;;;;;18.77;6.18;;;;;;;;;;5071077;28;20591;-74
2021/12/12 04:17:38;;;;;;;15.73;5.63;;;;;;;;;;5073003;28;20232;-73
2021/12/12 04:20:15;;;;;;;13.25;4.95;;;;;;;;;;5072811;28;20190;-73
2021/12/12 04:22:42;;;;;;;9.38;3.40;;;;;;;;;;5072807;28;20174;-73
2021/12/12 04:25:08;;;;;;;30.50;7.15;;;;;;;;;;5072810;28;20341;-73
2021/12/12 04:27:35;;;;;;;35.20;5.97;;;;;;;;;;5076960;28;20787;-74
2021/12/12 04:30:04;;;;;;;15.10;5.20;;;;;;;;;;5072985;28;20183;-74
2021/12/12 04:32:30;;;;;;;7.95;3.53;;;;;;;;;;5072895;28;20191;-75
2021/12/12 04:34:59;;;;;;;6.45;3.13;;;;;;;;;;5073410;28;20197;-75
2021/12/12 04:37:26;;;;;;;12.90;4.95;;;;;;;;;;5072545;28;20277;-75
2021/12/12 04:39:55;;;;;;;14.90;5.20;;;;;;;;;;5072385;28;20172;-75
2021/12/12 04:42:24;;;;;;;10.65;3.65;;;;;;;;;;5072439;28;20163;-75
2021/12/12 04:44:51;;;;;;;7.43;2.53;;;;;;;;;;5073713;28;20199;-75
2021/12/12 04:50:14;;;;;;;9.27;3.03;;;;;;;;;;5072396;28;20221;-75
2021/12/12 04:52:57;;;;;;;12.25;5.18;;;;;;;;;;5072456;28;20634;-75
2021/12/12 04:55:31;;;;;;;14.32;4.65;;;;;;;;;;5088620;28;20182;-75
2021/12/12 04:58:13;;;;;;;15.50;4.72;;;;;;;;;;5072371;28;20529;-74
2021/12/12 05:00:42;;;;;;;7.40;2.40;;;;;;;;;;5072203;28;20282;-75
2021/12/12 05:03:16;;;;;;;5.85;2.22;;;;;;;;;;5074010;28;20182;-74
2021/12/12 05:05:45;;;;;;;14.93;3.83;;;;;;;;;;5071995;28;20190;-75
2021/12/12 05:08:18;;;;;;;13.43;3.38;;;;;;;;;;5096337;28;20178;-75
2021/12/12 05:11:10;;;;;;;17.33;4.07;;;;;;;;;;5081093;28;20584;-75
2021/12/12 05:13:39;;;;;;;24.70;3.97;;;;;;;;;;5041546;28;20218;-75
2021/12/12 05:16:13;;;;;;;7.63;2.97;;;;;;;;;;5051923;28;20187;-75
2021/12/12 05:18:48;;;;;;;22.33;4.25;;;;;;;;;;5053975;28;20184;-75
2021/12/12 05:21:16;;;;;;;6.72;2.30;;;;;;;;;;5040797;28;20189;-75
2021/12/12 05:23:45;;;;;;;23.83;3.05;;;;;;;;;;5051941;28;20196;-75
2021/12/12 05:26:13;;;;;;;10.13;2.22;;;;;;;;;;5053007;28;20227;-75
2021/12/12 05:28:46;;;;;;;11.65;3.65;;;;;;;;;;5053130;28;20584;-75
2021/12/12 05:31:13;;;;;;;11.40;2.88;;;;;;;;;;5044518;28;20200;-75
2021/12/12 05:33:39;;;;;;;7.30;2.00;;;;;;;;;;5053369;28;20206;-75
2021/12/12 05:36:10;;;;;;;8.13;2.10;;;;;;;;;;5042445;28;20709;-75
2021/12/12 05:38:37;;;;;;;4.43;2.30;;;;;;;;;;5053015;28;20184;-75
2021/12/12 05:41:03;;;;;;;5.93;2.58;;;;;;;;;;5049461;28;20227;-75
2021/12/12 05:43:29;;;;;;;8.90;2.72;;;;;;;;;;5047741;28;20262;-75
2021/12/12 05:45:55;;;;;;;15.93;4.00;;;;;;;;;;5043754;28;20211;-75
2021/12/12 05:48:22;;;;;;;13.80;3.53;;;;;;;;;;5053013;28;20171;-73
2021/12/12 05:50:49;;;;;;;15.45;2.40;;;;;;;;;;5070780;28;20613;-74
2021/12/12 05:53:15;;;;;;;15.15;3.83;;;;;;;;;;5077336;28;20175;-74
2021/12/12 05:55:42;;;;;;;3.58;1.92;;;;;;;;;;5086092;28;20178;-74
2021/12/12 05:58:11;;;;;;;10.43;3.10;;;;;;;;;;5087174;28;20182;-74
2021/12/12 06:00:39;;;;;;;9.02;2.90;;;;;;;;;;5074996;28;20600;-74
2021/12/12 06:03:08;;;;;;;10.15;2.30;;;;;;;;;;5073612;28;20546;-73
2021/12/12 06:05:34;;;;;;;12.32;3.08;;;;;;;;;;5084990;28;20171;-75
2021/12/12 06:08:00;;;;;;;13.00;3.30;;;;;;;;;;5090045;28;20667;-75
2021/12/12 06:10:26;;;;;;;10.02;2.85;;;;;;;;;;5076544;28;20626;-75
2021/12/12 06:12:53;;;;;;;9.23;2.97;;;;;;;;;;5074665;28;20622;-75
2021/12/12 06:15:20;;;;;;;8.82;2.55;;;;;;;;;;5075888;28;20261;-75
2021/12/12 06:17:48;;;;;;;9.57;2.65;;;;;;;;;;5074494;28;20175;-75
2021/12/12 06:20:14;;;;;;;7.75;3.35;;;;;;;;;;5075293;28;20253;-74
2021/12/12 06:22:40;;;;;;;10.10;4.63;;;;;;;;;;5080964;28;20181;-74
2021/12/12 06:25:08;;;;;;;4.38;2.22;;;3.30;1.00;;;;;;5087977;28;20209;-74
2021/12/12 06:27:34;;;;;;;4.97;2.42;;;;;;;;;;5084837;28;20308;-74
2021/12/12 06:30:00;;;;;;;15.00;4.93;;;;;;;;;;5074723;28;20178;-74
2021/12/12 06:32:26;;;;;;;3.65;2.03;;;;;;;;;;5074132;28;20651;-74
2021/12/12 06:34:55;;;;;;;8.60;3.15;;;;;;;;;;5081268;28;20182;-74
2021/12/12 06:37:24;;;;;;;15.25;2.85;;;;;;;;;;5085502;28;20179;-75
2021/12/12 06:39:50;;;;;;;15.25;3.88;;;;;;;;;;5073765;28;20512;-76
2021/12/12 06:42:17;;;;;;;8.10;3.08;;;;;;;;;;5084057;28;20178;-75
2021/12/12 06:44:43;;;;;;;10.77;2.58;;;;;;;;;;5080623;28;20195;-75
2021/12/12 06:47:10;;;;;;;4.22;2.00;;;;;;;;;;5077863;28;20237;-75
2021/12/12 06:49:37;;;;;;;12.00;3.13;;;;;;;;;;5074324;28;20193;-73
2021/12/12 06:52:05;;;;;;;6.30;2.42;;;;;;;;;;5072650;28;20597;-74
2021/12/12 06:54:32;;;;;;;27.40;6.10;;;;;;;;;;5083270;28;20235;-73
2021/12/12 06:57:00;;;;;;;11.82;2.95;;;3.50;1.00;;;;;;5086596;28;20183;-73
2021/12/12 06:59:28;;;;;;;19.83;3.88;;;;;;;;;;5082069;28;20175;-73
2021/12/12 07:01:54;;;;;;;30.65;2.60;;;;;;;;;;5073989;28;20175;-74
2021/12/12 07:04:22;;;;;;;17.48;3.78;;;;;;;;;;5083569;28;20194;-74
2021/12/12 07:06:50;;;;;;;17.17;3.70;;;;;;;;;;5085167;28;20595;-75
2021/12/12 07:09:16;;;;;;;10.18;2.97;;;;;;;;;;5074359;28;20171;-75
2021/12/12 07:11:44;;;;;;;9.68;3.05;;;;;;;;;;5073556;28;20649;-75
2021/12/12 07:14:12;;;;;;;5.85;2.95;;;;;;;;;;5073510;28;20569;-75
2021/12/12 07:16:39;;;;;;;10.38;3.15;;;;;;;;;;5082348;28;20656;-75
2021/12/12 07:19:06;;;;;;;7.07;2.25;;;;;;;;;;5073596;28;20183;-75
2021/12/12 07:21:33;;;;;;;16.35;3.70;;;;;;;;;;5073409;28;20258;-75
2021/12/12 07:24:00;;;;;;;15.20;4.72;;;;;;;;;;5076797;28;20256;-75
2021/12/12 07:26:28;;;;;;;4.45;2.42;;;;;;;;;;5073682;28;20179;-75
2021/12/12 07:28:56;;;;;;;6.13;1.83;;;;;;;;;;5071947;28;20566;-75
2021/12/12 07:31:23;;;;;;;10.70;3.47;;;;;;;;;;5072237;28;20190;-75
2021/12/12 07:33:55;;;;;;;8.25;2.67;;;;;;;;;;5076316;28;20174;-75
2021/12/12 07:36:22;;;;;;;4.10;2.10;;;;;;;;;;5077103;28;20552;-73
2021/12/12 07:38:54;;;;;;;8.68;2.55;;;;;;;;;;5072927;28;20229;-73
2021/12/12 07:41:21;;;;;;;7.35;2.17;;;;;;;;;;5080221;28;20170;-74
2021/12/12 07:43:50;;;;;;;12.20;3.40;;;;;;;;;;5093064;28;20194;-74
2021/12/12 07:46:16;;;;;;;8.70;2.97;;;;;;;;;;5082085;28;20206;-74
2021/12/12 07:48:44;;;;;;;10.88;3.75;;;;;;;;;;5077067;28;20412;-73
2021/12/12 07:51:10;;;;;;;9.20;3.78;;;;;;;;;;5073422;28;20285;-74
2021/12/12 07:53:37;;;;;;;13.90;4.03;;;;;;;;;;5073133;28;20526;-74
2021/12/12 07:56:03;;;;;;;7.82;2.30;;;;;;;;;;5074524;28;20257;-74
2021/12/12 07:58:30;;;;;;;8.43;2.88;;;;;;;;;;5072943;28;20688;-73
2021/12/12 08:00:59;;;;;;;10.50;3.28;;;;;;;;;;5078482;28;20249;-74
2021/12/12 08:03:30;;;;;;;8.23;3.20;;;;;;;;;;5077327;28;20544;-74
2021/12/12 08:05:59;;;;;;;10.80;3.00;;;;;;;;;;5075289;28;20163;-75
2021/12/12 08:08:28;;;;;;;5.05;2.10;;;;;;;;;;5072584;28;20262;-75
2021/12/12 08:10:56;;;;;;;16.65;3.80;;;;;;;;;;5076155;28;20201;-75
2021/12/12 08:13:23;;;;;;;7.65;2.80;;;;;;;;;;5075704;28;20175;-75
2021/12/12 08:15:51;;;;;;;12.10;3.57;;;;;;;;;;5072920;28;20167;-75
2021/12/12 08:18:18;;;;;;;7.03;2.50;;;;;;;;;;5071507;28;20441;-75
2021/12/12 08:20:47;;;;;;;9.07;2.85;;;;;;;;;;5072950;28;20186;-75
2021/12/12 08:23:14;;;;;;;14.98;3.70;;;;;;;;;;5071421;28;20637;-75
2021/12/12 08:25:41;;;;;;;12.20;2.70;;;;;;;;;;5072901;28;20171;-75
2021/12/12 08:28:09;;;;;;;11.00;3.03;;;;;;;;;;5071703;28;20190;-75
2021/12/12 08:30:36;;;;;;;24.13;4.35;;;;;;;;;;5073135;28;20466;-76
2021/12/12 08:33:05;;;;;;;10.83;3.27;;;;;;;;;;5072362;28;20249;-76
2021/12/12 08:35:32;;;;;;;5.57;2.70;;;;;;;;;;5081665;28;20506;-75
2021/12/12 08:37:59;;;;;;;10.07;3.00;;;;;;;;;;5075774;28;20171;-75
2021/12/12 08:40:27;;;;;;;18.43;4.93;;;;;;;;;;5079792;28;20477;-75
2021/12/12 08:42:54;;;;;;;6.60;2.60;;;;;;;;;;5072739;28;20421;-75
2021/12/12 08:45:22;;;;;;;15.03;3.87;;;;;;;;;;5072639;28;20979;-75
2021/12/12 08:47:49;;;;;;;25.03;5.10;;;;;;;;;;5078000;28;20513;-75
2021/12/12 08:50:18;;;;;;;8.43;2.63;;;;;;;;;;5073747;28;20397;-74
2021/12/12 08:52:46;;;;;;;4.90;2.60;;;;;;;;;;5076311;28;20412;-75
2021/12/12 08:55:18;;;;;;;11.27;3.70;;;;;;;;;;5085567;28;20484;-75
2021/12/12 08:58:14;;;;;;;21.03;2.73;;;;;;;;;;5086566;28;20910;-75
2021/12/12 09:00:35;;;;;;;4.77;2.70;;;;;;;;;;5089175;28;20401;-75
2021/12/12 09:03:02;;;;;;;7.37;3.00;;;;;;;;;;5079512;28;20442;-75
2021/12/12 09:05:32;;;;;;;10.00;2.93;;;;;;;;;;5080158;28;20448;-73
2021/12/12 09:08:10;;;;;;;10.13;3.10;;;;;;;;;;5076997;28;20421;-74
2021/12/12 09:11:09;;;;;;;12.83;3.50;;;;;;;;;;5076696;28;20502;-73
2021/12/12 09:13:40;;;;;;;10.77;4.10;;;;;;;;;;5067165;28;20440;-74
2021/12/12 09:16:19;;;;;;;14.03;4.13;;;;;;;;;;5064335;28;20834;-73
2021/12/12 09:18:54;;;;;;;13.40;4.00;;;;;;;;;;5060874;28;20424;-74
2021/12/12 09:21:27;;;;;;;5.70;2.60;;;;;;;;;;5073032;28;20802;-73
2021/12/12 09:24:02;;;;;;;45.27;6.23;;;;;;;;;;5060382;28;20631;-73
2021/12/12 09:26:29;;;;;;;6.50;3.20;;;5.10;1.00;;;;;;5073566;28;20435;-73
2021/12/12 09:29:05;;;;;;;12.90;3.90;;;;;;;;;;5056395;28;20422;-73
2021/12/12 09:31:34;;;;;;;16.30;3.40;;;;;;;;;;5054497;28;20449;-73
2021/12/12 09:34:03;;;;;;;11.93;3.90;;;;;;;;;;5041607;28;20758;-73
2021/12/12 09:36:47;;;;;;;5.73;3.10;;;;;;;;;;5062869;28;20460;-73
2021/12/12 09:39:24;;;;;;;14.43;4.13;;;;;;;;;;5045925;28;20433;-73
2021/12/12 09:42:08;;;;;;;10.60;3.40;;;;;;;;;;5064039;28;20417;-73
2021/12/12 09:44:49;;;;;;;9.53;3.20;;;;;;;;;;5059934;28;20458;-73
2021/12/12 09:47:29;;;;;;;6.30;2.97;;;;;;;;;;5062129;28;20432;-73
2021/12/12 09:53:39;;;;;;;7.70;2.87;;;5.20;1.00;;;;;;5083462;28;20921;-73
2021/12/12 09:56:12;;;;;;;10.10;3.40;;;;;;;;;;5087233;28;20415;-73
2021/12/12 09:58:41;;;;;;;10.43;3.53;;;;;;;;;;5076488;28;20415;-74
2021/12/12 10:01:20;;;;;;;15.57;4.60;;;;;;;;;;5081174;28;20444;-75
2021/12/12 10:03:49;;;;;;;6.50;2.63;;;;;;;;;;5087220;28;20460;-75
2021/12/12 10:06:25;;;;;;;5.37;2.37;;;;;;;;;;5075400;28;20478;-75
2021/12/12 10:09:15;;;;;;;13.43;4.03;;;5.20;1.00;;;;;;5076031;28;20441;-75
2021/12/12 10:11:44;;;;;;;6.80;2.77;;;;;;;;;;5078421;28;20417;-74
2021/12/12 10:14:29;;;;;;;13.40;4.20;;;;;;;;;;5080241;28;20408;-74
2021/12/12 10:17:02;;;;;;;11.90;4.47;;;;;;;;;;5083947;28;20421;-73
2021/12/12 10:19:28;;;;;;;14.90;4.30;;;;;;;;;;5077921;28;20771;-73
2021/12/12 10:22:19;;;;;;;14.93;4.37;;;5.20;1.00;;;;;;5083080;28;20420;-77
2021/12/12 10:25:00;;;;;;;18.70;3.97;;;;;;;;;;5075635;28;20519;-77
2021/12/12 10:27:55;;;;;;;5.70;2.97;;;5.30;1.00;;;;;;5086780;28;20907;-80
2021/12/12 10:30:36;;;;;;;5.40;2.07;;;;;;;;;;5085302;28;20764;-78
2021/12/12 10:33:10;;;;;;;13.30;3.77;;;;;;;;;;5079002;28;20460;-79
2021/12/12 10:35:42;;;;;;;3.90;2.40;;;;;;;;;;5088044;28;20408;-79
2021/12/12 10:38:11;;;;;;;12.47;4.03;;;;;;;;;;5075782;28;20443;-74
2021/12/12 10:40:45;;;;;;;22.57;5.63;;;;;;;;;;5080312;28;20431;-74
2021/12/12 10:43:12;;;;;;;20.33;5.30;;;;;;;;;;5074656;28;20417;-74
2021/12/12 10:45:45;;;;;;;11.48;3.28;;;;;;;;;;5083867;28;20835;-74
2021/12/12 10:48:18;;;;;;;32.37;6.53;;;;;;;;;;5080202;28;20295;-73
2021/12/12 10:50:44;;;;;;;8.35;3.30;;;;;;;;;;5076978;28;20912;-73
2021/12/12 10:53:20;;;;;;;15.07;2.80;;;;;;;;;;5079747;28;20183;-73
2021/12/12 10:55:49;;;;;;;14.80;4.30;;;;;;;;;;5079352;28;20496;-73
2021/12/12 10:58:29;;;;;;;8.07;3.27;;;;;;;;;;5078902;28;20484;-73
2021/12/12 11:01:04;;;;;;;18.73;5.00;;;;;;;;;;5082756;28;20409;-73
2021/12/12 11:03:50;;;;;;;18.67;5.10;;;;;;;;;;5074875;28;20882;-73
2021/12/12 11:06:41;;;;;;;8.23;2.80;;;5.70;1.00;;;;;;5074380;28;20509;-73
2021/12/12 11:09:38;;;;;;;11.70;2.87;;;;;;;;;;5088566;28;20492;-73
2021/12/12 11:12:18;;;;;;;9.50;3.80;;;;;;;;;;4994044;28;20906;-73
2021/12/12 11:15:11;;;;;;;10.37;3.80;;;6.00;1.00;;;;;;5003956;28;21029;-73
2021/12/12 11:17:40;;;;;;;11.17;3.30;;;;;;;;;;5007365;28;20428;-73
2021/12/12 11:20:12;;;;;;;10.90;3.53;;;;;;;;;;4998457;28;20765;-73
2021/12/12 11:22:47;;;;;;;6.93;2.90;;;;;;;;;;4985628;28;20421;-73
2021/12/12 11:25:27;;;;;;;6.80;2.80;;;;;;;;;;4982864;28;20464;-73
2021/12/12 11:28:05;;;;;;;13.73;4.30;;;;;;;;;;4991130;28;20501;-76
2021/12/12 11:30:34;;;;;;;8.03;3.00;;;;;;;;;;5011363;28;20420;-72
2021/12/12 11:33:02;;;;;;;10.83;4.03;;;;;;;;;;5010139;28;20454;-73
2021/12/12 11:35:29;;;;;;;6.83;3.10;;;;;;;;;;5011438;28;20422;-73
2021/12/12 11:38:01;;;;;;;8.70;3.30;;;;;;;;;;5011584;28;20412;-73
2021/12/12 11:40:31;;;;;;;25.40;6.00;;;;;;;;;;5011758;28;20416;-77
2021/12/12 11:43:00;;;;;;;9.33;3.67;;;;;;;;;;4999309;28;20780;-78
2021/12/12 11:45:29;;;;;;;20.00;5.10;;;;;;;;;;5012075;28;20890;-78
2021/12/12 11:47:55;;;;;;;16.07;4.30;;;;;;;;;;5029832;28;20413;-76
2021/12/12 11:50:22;;;;;;;14.17;4.17;;;;;;;;;;5073733;28;20440;-77
2021/12/12 11:53:06;;;;;;;10.27;3.37;;;;;;;;;;5075975;28;20876;-77
2021/12/12 11:55:42;;;;;;;12.33;3.73;;;;;;;;;;5080871;28;20405;-73
2021/12/12 11:58:20;;;;;;;12.03;3.70;;;;;;;;;;5073548;28;20448;-73
2021/12/12 12:00:49;;;;;;;13.33;4.10;;;;;;;;;;5077475;28;20922;-73
2021/12/12 12:03:53;;;;;;;14.83;3.73;;;5.80;1.00;;;;;;5075386;28;20425;-73
2021/12/12 12:06:34;;;;;;;10.33;3.73;;;;;;;;;;5073494;28;20409;-73
2021/12/12 12:09:19;;;;;;;10.53;3.57;;;;;;;;;;5083059;28;20409;-74
2021/12/12 12:12:04;;;;;;;16.30;4.30;;;;;;;;;;5074011;28;20413;-74
2021/12/12 12:14:38;;;;;;;9.93;3.37;;;;;;;;;;5073228;28;20499;-73
2021/12/12 12:17:12;;;;;;;20.43;4.10;;;;;;;;;;5073363;28;20864;-73
2021/12/12 12:20:11;;;;;;;29.57;5.40;;;5.90;1.00;;;;;;5084159;28;20479;-73
2021/12/12 12:22:47;;;;;;;22.40;3.13;;;;;;;;;;5075473;28;21170;-73
2021/12/12 12:25:20;;;;;;;9.50;3.80;;;;;;;;;;5084310;28;20843;-77
2021/12/12 12:27:57;;;;;;;7.53;3.03;;;;;;;;;;5079065;28;20416;-76
2021/12/12 12:30:33;;;;;;;16.20;2.60;;;;;;;;;;5085427;28;20810;-74
2021/12/12 12:33:14;;;;;;;7.77;3.40;;;;;;;;;;5078912;28;20799;-76
2021/12/12 12:35:59;;;;;;;8.47;2.87;;;;;;;;;;5077460;28;20451;-75
2021/12/12 12:38:45;;;;;;;17.70;4.67;;;;;;;;;;5079071;28;20409;-77
2021/12/12 12:41:39;;;;;;;12.50;3.87;;;5.90;1.00;;;;;;5088987;28;20499;-73
2021/12/12 12:44:35;;;;;;;12.30;3.60;;;5.90;1.00;;;;;;5080883;28;20530;-73
2021/12/12 12:47:39;;;;;;;12.70;3.20;;;5.90;1.00;;;;;;5077155;28;20405;-73
2021/12/12 12:50:23;;;;;;;6.30;2.87;;;5.90;1.00;;;;;;5080819;28;20420;-73
2021/12/12 12:53:07;;;;;;;9.03;3.40;;;6.00;1.00;;;;;;5082715;28;20457;-73
2021/12/12 12:55:52;;;;;;;10.37;3.50;;;;;;;;;;5091060;28;20485;-73
2021/12/12 12:58:24;;;;;;;15.83;3.80;;;;;;;;;;5080049;28;20462;-74
2021/12/12 13:00:51;;;;;;;9.13;3.43;;;;;;;;;;5076873;28;20421;-74
2021/12/12 13:03:29;;;;;;;12.53;3.73;;;;;;;;;;5076696;28;20425;-74
2021/12/12 13:06:01;;;;;;;15.47;4.27;;;;;;;;;;5077486;28;20431;-74
2021/12/12 13:08:46;;;;;;;15.57;5.10;;;;;;;;;;5080667;28;20484;-74
2021/12/12 13:11:15;;;;;;;11.80;4.00;;;;;;;;;;5088001;28;20427;-74
2021/12/12 13:14:01;;;;;;;13.13;3.60;;;;;;;;;;5080122;28;20425;-73
2021/12/12 13:16:45;;;;;;;16.37;3.83;;;;;;;;;;5076879;28;20933;-73
2021/12/12 13:19:27;;;;;;;6.00;2.97;;;;;;;;;;5076643;28;20491;-74
2021/12/12 13:22:20;;;;;;;14.90;3.90;;;;;;;;;;5088580;28;20405;-73
2021/12/12 13:25:22;;;;;;;12.23;3.67;;;;;;;;;;5083340;28;20953;-74
2021/12/12 13:28:16;;;;;;;14.93;4.40;;;;;;;;;;5038669;28;20582;-77
2021/12/12 13:30:47;;;;;;;21.10;4.27;;;;;;;;;;5009632;28;20415;-77
2021/12/12 13:33:16;;;;;;;8.60;3.03;;;;;;;;;;5032952;28;20439;-77
2021/12/12 13:36:09;;;;;;;13.00;4.27;;;6.30;1.00;;;;;;5020202;28;20439;-78
2021/12/12 13:38:36;;;;;;;10.57;3.33;;;;;;;;;;5019728;28;20424;-76
2021/12/12 13:41:08;;;;;;;20.20;4.60;;;;;;;;;;5029093;28;20492;-77
2021/12/12 13:43:34;;;;;;;19.50;4.23;;;;;;;;;;5028873;28;20428;-77
2021/12/12 13:46:06;;;;;;;12.87;3.57;;;;;;;;;;5031585;28;20759;-75
2021/12/12 13:48:56;;;;;;;11.77;3.60;;;;;;;;;;5030913;28;20438;-77
2021/12/12 13:51:35;;;;;;;6.17;2.70;;;;;;;;;;5021506;28;20546;-78
2021/12/12 13:54:06;;;;;;;9.60;3.33;;;;;;;;;;5022077;28;20439;-78
2021/12/12 13:56:32;;;;;;;11.03;3.30;;;;;;;;;;5030397;28;20478;-72
2021/12/12 13:59:00;;;;;;;24.67;5.87;;;;;;;;;;5027252;28;20474;-76
2021/12/12 14:01:49;;;;;;;10.77;3.83;;;;;;;;;;5051012;28;20916;-75
2021/12/12 14:04:21;;;;;;;31.27;5.67;;;;;;;;;;5081580;28;20461;-73
2021/12/12 14:06:48;;;;;;;41.63;7.17;;;;;;;;;;5080010;28;20808;-74
2021/12/12 14:09:18;;;;;;;10.03;3.50;;;;;;;;;;5082942;28;20428;-74
2021/12/12 14:11:45;;;;;;;19.07;4.43;;;;;;;;;;5088163;28;20417;-74
2021/12/12 14:14:21;;;;;;;7.20;2.80;;;;;;;;;;5082861;28;20433;-73
2021/12/12 14:17:01;;;;;;;28.97;5.10;;;;;;;;;;5081616;28;20445;-74
2021/12/12 14:19:39;;;;;;;6.10;2.20;;;;;;;;;;5081782;28;20432;-74
2021/12/12 14:22:05;;;;;;;8.00;2.80;;;;;;;;;;5087759;28;20749;-73
2021/12/12 14:24:33;;;;;;;9.10;3.00;;;;;;;;;;5079222;28;20551;-73
2021/12/12 14:27:01;;;;;;;12.57;3.50;;;;;;;;;;5090665;28;20433;-74
2021/12/12 14:29:33;;;;;;;10.03;2.47;;;;;;;;;;5086139;28;20894;-78
2021/12/12 14:32:13;;;;;;;11.13;3.57;;;;;;;;;;5080064;28;20451;-75
2021/12/12 14:34:44;;;;;;;14.13;2.30;;;;;;;;;;5081495;28;20853;-75
2021/12/12 14:37:12;;;;;;;22.17;3.70;;;;;;;;;;5084593;28;20510;-75
2021/12/12 14:39:39;;;;;;;23.77;4.73;;;;;;;;;;5075433;28;20424;-74
2021/12/12 14:42:24;;;;;;;7.00;2.40;;;;;;;;;;5077484;28;20437;-74
2021/12/12 14:44:51;;;;;;;31.20;4.97;;;;;;;;;;5077712;28;20455;-74
2021/12/12 14:47:21;;;;;;;9.60;2.40;;;;;;;;;;5079869;28;20429;-73
2021/12/12 14:49:48;;;;;;;8.17;2.37;;;;;;;;;;5076499;28;20440;-72
2021/12/12 14:52:22;;;;;;;15.67;3.60;;;;;;;;;;5079611;28;20435;-74
2021/12/12 14:54:54;;;;;;;20.13;3.40;;;;;;;;;;5084268;28;20432;-72
2021/12/12 14:57:26;;;;;;;97.00;12.97;;;;;;;;;;5073725;28;20465;-73
2021/12/12 14:59:56;;;;;;;45.40;7.47;;;;;;;;;;5078359;28;20894;-73
2021/12/12 15:02:33;;;;;;;21.10;4.00;;;;;;;;;;5089734;28;20424;-73
2021/12/12 15:05:17;;;;;;;7.97;1.90;;;;;;;;;;5076424;28;20852;-74
2021/12/12 15:07:45;;;;;;;32.83;5.50;;;;;;;;;;5080036;28;20475;-73
2021/12/12 15:10:18;;;;;;;8.70;2.20;;;;;;;;;;5088871;28;20429;-74
2021/12/12 15:12:50;;;;;;;17.77;4.23;;;;;;;;;;5077442;28;20429;-75
2021/12/12 15:15:19;;;;;;;6.23;2.47;;;;;;;;;;5080736;28;20932;-75
2021/12/12 15:17:51;;;;;;;7.20;2.53;;;;;;;;;;5076306;28;20468;-75